Tubul — A8VP8 — position and weather

sailwx.info

Track history (hours):
 
Tides and Currents Weather Stations Pressure Air Temp Water Temp Dewpoint Dewpoint Depression Visibility Wind Speed Wind Dir Waves Ship Positions

Tubul

Last reported at 2015-Apr-18 16:06 UTC. Time now 2015-Apr-18 16:42 UTC.
Position N 22°22' E 114°34'.

Length 300 m; draft 11 m.

Type: Ship. MMSI: 636014647.

Date/timePositionNaut miles runAvg speedWind from/ knotsBaromVisibWave heightAir tempDewpointWater temp
2015-Apr-18 16:06N 22°22' E 114°34'0 0.0
2015-Apr-18 15:18N 22°22' E 114°34'0 0.0
2015-Apr-18 14:33N 22°22' E 114°34'20 4.9
2015-Apr-18 10:30N 22°34' E 114°17'1 0.8
2015-Apr-18 09:17N 22°34' E 114°16'0 0.0
2015-Apr-18 08:17N 22°34' E 114°16'0 0.0
2015-Apr-18 06:23N 22°34' E 114°16'0 0.0
2015-Apr-17 23:31N 22°34' E 114°16'0 0.2
2015-Apr-17 21:28N 22°34' E 114°16'18 9.5
2015-Apr-17 19:33N 22°23' E 114°31'14613.0
2015-Apr-17 08:21N 22°56' E 117°05'10713.4
2015-Apr-17 00:23N 23°59' E 118°39'1113.4
2015-Apr-16 23:33N 24°07' E 118°47'1413.7
2015-Apr-16 22:32N 24°17' E 118°58'1313.3
2015-Apr-16 21:33N 24°25' E 119°10'1413.4
2015-Apr-16 20:31N 24°34' E 119°21'1313.4
2015-Apr-16 19:33N 24°43' E 119°31'1313.5
2015-Apr-16 18:33N 24°52' E 119°42'1413.4
2015-Apr-16 17:30N 25°02' E 119°53'8113.2
2015-Apr-16 11:19N 26°05' E 120°49'1113.5
2015-Apr-16 10:29N 26°15' E 120°57'9 7.1
2015-Apr-16 09:14N 26°22' E 121°02'18812.8
2015-Apr-15 18:33N 29°12' E 122°33'1712.8
2015-Apr-15 17:14N 29°28' E 122°32'912.7
2015-Apr-15 16:33N 29°37' E 122°30'1313.1
2015-Apr-15 15:33N 29°45' E 122°19'10 9.7
2015-Apr-15 14:33N 29°49' E 122°08'8 7.7
2015-Apr-15 13:33N 29°46' E 122°00'0 0.0
2015-Apr-15 12:19N 29°46' E 122°00'0 0.0
2015-Apr-15 10:19N 29°46' E 122°00'0 0.0
2015-Apr-15 02:13N 29°46' E 122°00'0 0.0
2015-Apr-15 01:07N 29°46' E 122°00'0 0.0
2015-Apr-15 00:09N 29°46' E 122°00'2 3.6
2015-Apr-14 23:33N 29°47' E 122°03'10 9.9
2015-Apr-14 22:33N 29°49' E 122°14'1010.2
2015-Apr-14 21:33N 29°44' E 122°24'1313.1
2015-Apr-14 20:33N 29°49' E 122°38'1413.6
2015-Apr-14 19:33N 29°59' E 122°49'1413.6
2015-Apr-14 18:31N 30°09' E 123°00'1212.4
2015-Apr-14 17:31N 30°20' E 122°54'3012.5
2015-Apr-14 15:10N 30°32' E 122°23'812.5
2015-Apr-14 14:33N 30°33' E 122°14'10 9.8
2015-Apr-14 13:32N 30°38' E 122°03'0 0.0
2015-Apr-13 16:33N 30°38' E 122°03'0 0.0
2015-Apr-13 15:18N 30°38' E 122°03'0 0.0
2015-Apr-13 09:21N 30°38' E 122°03'3 4.3
2015-Apr-13 08:32N 30°35' E 122°07'1010.5
2015-Apr-13 07:33N 30°33' E 122°18'8 7.9
2015-Apr-13 06:33N 30°32' E 122°27'11 0.7
2015-Apr-12 15:08N 30°27' E 122°39'0 0.1
2015-Apr-12 14:32N 30°27' E 122°39'0 0.0
2015-Apr-12 13:32N 30°27' E 122°39'1 1.0
2015-Apr-12 12:34N 30°28' E 122°40'1010.0
2015-Apr-12 11:33N 30°31' E 122°51'1010.4
2015-Apr-12 10:34N 30°37' E 123°02'1010.3
2015-Apr-12 09:33N 30°41' E 123°12'1010.2
2015-Apr-12 08:33N 30°48' E 123°21'1010.5
2015-Apr-12 07:34N 30°55' E 123°31'1110.6
2015-Apr-12 06:33N 31°01' E 123°40'1111.0
2015-Apr-12 05:31N 31°08' E 123°51'1211.1
2015-Apr-12 04:28N 31°16' E 124°01'1211.4
2015-Apr-12 03:27N 31°23' E 124°12'  
Track history (hours):
 
Tides and Currents Weather Stations Pressure Air Temp Water Temp Dewpoint Dewpoint Depression Visibility Wind Speed Wind Dir Waves Ship Positions

Tubul

Last reported at 2015-Apr-18 16:06 UTC. Time now 2015-Apr-18 16:42 UTC.
Position N 22°22' E 114°34'.

Length 300 m; draft 11 m.

Type: Ship. MMSI: 636014647.

Date/timePositionNaut miles runAvg speedWind from/ knotsBaromVisibWave heightAir tempDewpointWater temp
2015-Apr-18 16:06N 22°22' E 114°34'0 0.0
2015-Apr-18 15:18N 22°22' E 114°34'0 0.0
2015-Apr-18 14:33N 22°22' E 114°34'20 4.9
2015-Apr-18 10:30N 22°34' E 114°17'1 0.8
2015-Apr-18 09:17N 22°34' E 114°16'0 0.0
2015-Apr-18 08:17N 22°34' E 114°16'0 0.0
2015-Apr-18 06:23N 22°34' E 114°16'0 0.0
2015-Apr-17 23:31N 22°34' E 114°16'0 0.2
2015-Apr-17 21:28N 22°34' E 114°16'18 9.5
2015-Apr-17 19:33N 22°23' E 114°31'14613.0
2015-Apr-17 08:21N 22°56' E 117°05'10713.4
2015-Apr-17 00:23N 23°59' E 118°39'1113.4
2015-Apr-16 23:33N 24°07' E 118°47'1413.7
2015-Apr-16 22:32N 24°17' E 118°58'1313.3
2015-Apr-16 21:33N 24°25' E 119°10'1413.4
2015-Apr-16 20:31N 24°34' E 119°21'1313.4
2015-Apr-16 19:33N 24°43' E 119°31'1313.5
2015-Apr-16 18:33N 24°52' E 119°42'1413.4
2015-Apr-16 17:30N 25°02' E 119°53'8113.2
2015-Apr-16 11:19N 26°05' E 120°49'1113.5
2015-Apr-16 10:29N 26°15' E 120°57'9 7.1
2015-Apr-16 09:14N 26°22' E 121°02'18812.8
2015-Apr-15 18:33N 29°12' E 122°33'1712.8
2015-Apr-15 17:14N 29°28' E 122°32'912.7
2015-Apr-15 16:33N 29°37' E 122°30'1313.1
2015-Apr-15 15:33N 29°45' E 122°19'10 9.7
2015-Apr-15 14:33N 29°49' E 122°08'8 7.7
2015-Apr-15 13:33N 29°46' E 122°00'0 0.0
2015-Apr-15 12:19N 29°46' E 122°00'0 0.0
2015-Apr-15 10:19N 29°46' E 122°00'0 0.0
2015-Apr-15 02:13N 29°46' E 122°00'0 0.0
2015-Apr-15 01:07N 29°46' E 122°00'0 0.0
2015-Apr-15 00:09N 29°46' E 122°00'2 3.6
2015-Apr-14 23:33N 29°47' E 122°03'10 9.9
2015-Apr-14 22:33N 29°49' E 122°14'1010.2
2015-Apr-14 21:33N 29°44' E 122°24'1313.1
2015-Apr-14 20:33N 29°49' E 122°38'1413.6
2015-Apr-14 19:33N 29°59' E 122°49'1413.6
2015-Apr-14 18:31N 30°09' E 123°00'1212.4
2015-Apr-14 17:31N 30°20' E 122°54'3012.5
2015-Apr-14 15:10N 30°32' E 122°23'812.5
2015-Apr-14 14:33N 30°33' E 122°14'10 9.8
2015-Apr-14 13:32N 30°38' E 122°03'0 0.0
2015-Apr-13 16:33N 30°38' E 122°03'0 0.0
2015-Apr-13 15:18N 30°38' E 122°03'0 0.0
2015-Apr-13 09:21N 30°38' E 122°03'3 4.3
2015-Apr-13 08:32N 30°35' E 122°07'1010.5
2015-Apr-13 07:33N 30°33' E 122°18'8 7.9
2015-Apr-13 06:33N 30°32' E 122°27'11 0.7
2015-Apr-12 15:08N 30°27' E 122°39'0 0.1
2015-Apr-12 14:32N 30°27' E 122°39'0 0.0
2015-Apr-12 13:32N 30°27' E 122°39'1 1.0
2015-Apr-12 12:34N 30°28' E 122°40'1010.0
2015-Apr-12 11:33N 30°31' E 122°51'1010.4
2015-Apr-12 10:34N 30°37' E 123°02'1010.3
2015-Apr-12 09:33N 30°41' E 123°12'1010.2
2015-Apr-12 08:33N 30°48' E 123°21'1010.5
2015-Apr-12 07:34N 30°55' E 123°31'1110.6
2015-Apr-12 06:33N 31°01' E 123°40'1111.0
2015-Apr-12 05:31N 31°08' E 123°51'1211.1
2015-Apr-12 04:28N 31°16' E 124°01'1211.4
2015-Apr-12 03:27N 31°23' E 124°12'  

Dump ship's entire track history